N779CB RJTT-RJFU
Flight info
| Callsign | N779CB |
|---|---|
| Flight time | 1h 44m |
| Altitude | 43000 |
| Route | GUSRO Y20 KAMMY Y204 OHGIE |
| Aircraft | LJ35/M-SGHRWXY/SB1 |
Departure
| Time | 2026-04-14 12:09 |
|---|---|
| Airport | Tokyo Haneda International Airport (RJTT) |
Arrival
| Time | 2026-04-14 13:53 |
|---|---|
| Airport | Nagasaki Airport (RJFU) |
| Time | Latitude | Longitude | Altitude | Speed | Heading |
|---|---|---|---|---|---|
| 2026-04-14 12:03 | 35.53847 | 139.80051 | 18 ft | 0 kts | 59° |
| 2026-04-14 12:05 | 35.53849 | 139.80056 | 18 ft | 4 kts | 56° |
| 2026-04-14 12:06 | 35.53834 | 139.80108 | 18 ft | 11 kts | 151° |
| 2026-04-14 12:06 | 35.53726 | 139.80163 | 18 ft | 22 kts | 160° |
| 2026-04-14 12:06 | 35.53562 | 139.80256 | 18 ft | 29 kts | 150° |
| 2026-04-14 12:06 | 35.53370 | 139.80391 | 18 ft | 34 kts | 150° |
| 2026-04-14 12:07 | 35.53153 | 139.80543 | 18 ft | 38 kts | 150° |
| 2026-04-14 12:07 | 35.52950 | 139.80629 | 18 ft | 29 kts | 192° |
| 2026-04-14 12:07 | 35.52780 | 139.80464 | 18 ft | 34 kts | 223° |
| 2026-04-14 12:07 | 35.52633 | 139.80297 | 18 ft | 15 kts | 218° |
| 2026-04-14 12:08 | 35.52546 | 139.80363 | 18 ft | 20 kts | 110° |
| 2026-04-14 12:08 | 35.52566 | 139.80536 | 17 ft | 26 kts | 43° |
| 2026-04-14 12:08 | 35.52868 | 139.80871 | 17 ft | 108 kts | 42° |
| 2026-04-14 12:08 | 35.53714 | 139.81813 | 148 ft | 214 kts | 43° |
| 2026-04-14 12:09 | 35.54959 | 139.83208 | 1040 ft | 265 kts | 45° |
| 2026-04-14 12:09 | 35.56261 | 139.84695 | 2677 ft | 239 kts | 46° |
| 2026-04-14 12:09 | 35.57073 | 139.86344 | 4102 ft | 224 kts | 79° |
| 2026-04-14 12:09 | 35.56988 | 139.88253 | 5508 ft | 240 kts | 107° |
| 2026-04-14 12:10 | 35.56270 | 139.90203 | 7127 ft | 259 kts | 120° |
| 2026-04-14 12:10 | 35.55378 | 139.92090 | 8798 ft | 235 kts | 122° |
| 2026-04-14 12:10 | 35.54363 | 139.93478 | 10276 ft | 219 kts | 140° |
| 2026-04-14 12:10 | 35.52992 | 139.94452 | 11764 ft | 237 kts | 160° |
| 2026-04-14 12:11 | 35.51343 | 139.94842 | 13491 ft | 247 kts | 180° |
| 2026-04-14 12:11 | 35.49634 | 139.94510 | 15106 ft | 254 kts | 200° |
| 2026-04-14 12:11 | 35.48055 | 139.93446 | 15992 ft | 258 kts | 221° |
| 2026-04-14 12:11 | 35.46945 | 139.91772 | 16336 ft | 255 kts | 242° |
| 2026-04-14 12:12 | 35.46367 | 139.89667 | 16691 ft | 270 kts | 262° |
| 2026-04-14 12:12 | 35.46451 | 139.87312 | 17039 ft | 286 kts | 279° |
| 2026-04-14 12:12 | 35.46856 | 139.84812 | 17061 ft | 311 kts | 281° |
| 2026-04-14 12:12 | 35.47450 | 139.82173 | 17060 ft | 333 kts | 291° |
| 2026-04-14 12:13 | 35.48647 | 139.79657 | 17065 ft | 352 kts | 306° |
| 2026-04-14 12:13 | 35.50348 | 139.77407 | 17060 ft | 366 kts | 313° |
| 2026-04-14 12:13 | 35.52112 | 139.75240 | 17059 ft | 347 kts | 313° |
| 2026-04-14 12:13 | 35.53748 | 139.73187 | 17057 ft | 327 kts | 312° |
| 2026-04-14 12:14 | 35.55292 | 139.71212 | 17098 ft | 323 kts | 311° |
| 2026-04-14 12:14 | 35.56697 | 139.69109 | 18343 ft | 316 kts | 301° |
| 2026-04-14 12:14 | 35.57730 | 139.66724 | 19400 ft | 317 kts | 294° |
| 2026-04-14 12:14 | 35.58723 | 139.64308 | 20494 ft | 317 kts | 294° |
| 2026-04-14 12:15 | 35.59729 | 139.61899 | 21572 ft | 318 kts | 294° |
| 2026-04-14 12:15 | 35.60741 | 139.59471 | 22683 ft | 319 kts | 293° |
| 2026-04-14 12:15 | 35.61748 | 139.57045 | 23773 ft | 320 kts | 293° |
| 2026-04-14 12:15 | 35.62759 | 139.54600 | 24662 ft | 322 kts | 293° |
| 2026-04-14 12:16 | 35.63783 | 139.52132 | 25521 ft | 325 kts | 292° |
| 2026-04-14 12:16 | 35.64813 | 139.49635 | 26359 ft | 329 kts | 292° |
| 2026-04-14 12:16 | 35.65550 | 139.46985 | 27227 ft | 328 kts | 279° |
| 2026-04-14 12:16 | 35.65773 | 139.44188 | 28107 ft | 331 kts | 270° |
| 2026-04-14 12:17 | 35.65807 | 139.41341 | 28970 ft | 335 kts | 270° |
| 2026-04-14 12:17 | 35.65856 | 139.38466 | 29845 ft | 339 kts | 271° |
| 2026-04-14 12:17 | 35.65908 | 139.35551 | 30546 ft | 343 kts | 271° |
| 2026-04-14 12:17 | 35.65956 | 139.32611 | 31244 ft | 344 kts | 271° |
| 2026-04-14 12:18 | 35.66002 | 139.29660 | 31938 ft | 346 kts | 271° |
| 2026-04-14 12:18 | 35.66048 | 139.26694 | 32630 ft | 348 kts | 271° |
| 2026-04-14 12:18 | 35.66095 | 139.23715 | 33309 ft | 350 kts | 271° |
| 2026-04-14 12:18 | 35.66140 | 139.20713 | 33903 ft | 352 kts | 271° |
| 2026-04-14 12:19 | 35.66186 | 139.17691 | 34466 ft | 354 kts | 271° |
| 2026-04-14 12:19 | 35.66230 | 139.14666 | 35034 ft | 354 kts | 271° |
| 2026-04-14 12:19 | 35.66170 | 139.11635 | 35500 ft | 356 kts | 268° |
| 2026-04-14 12:19 | 35.66022 | 139.08596 | 36047 ft | 356 kts | 268° |
| 2026-04-14 12:20 | 35.65879 | 139.05553 | 36479 ft | 357 kts | 268° |
| 2026-04-14 12:20 | 35.65750 | 139.02503 | 36815 ft | 358 kts | 269° |
| 2026-04-14 12:20 | 35.65620 | 138.99447 | 37177 ft | 358 kts | 269° |
| 2026-04-14 12:20 | 35.65483 | 138.96433 | 37506 ft | 358 kts | 269° |
| 2026-04-14 12:21 | 35.65342 | 138.93369 | 37698 ft | 360 kts | 268° |
| 2026-04-14 12:21 | 35.65204 | 138.90295 | 37869 ft | 360 kts | 268° |
| 2026-04-14 12:21 | 35.65066 | 138.87221 | 38087 ft | 361 kts | 269° |
| 2026-04-14 12:21 | 35.64925 | 138.84140 | 38305 ft | 361 kts | 269° |
| 2026-04-14 12:22 | 35.64639 | 138.77993 | 38473 ft | 359 kts | 269° |
| 2026-04-14 12:22 | 35.64402 | 138.72895 | 38491 ft | 359 kts | 269° |
| 2026-04-14 12:23 | 35.64112 | 138.66757 | 38523 ft | 360 kts | 269° |
| 2026-04-14 12:23 | 35.63796 | 138.60621 | 38580 ft | 361 kts | 268° |
| 2026-04-14 12:24 | 35.63632 | 138.57544 | 38722 ft | 360 kts | 269° |
| 2026-04-14 12:24 | 35.63474 | 138.54492 | 38965 ft | 355 kts | 269° |
| 2026-04-14 12:24 | 35.63317 | 138.51459 | 39167 ft | 356 kts | 269° |
| 2026-04-14 12:24 | 35.63157 | 138.48433 | 39451 ft | 355 kts | 268° |
| 2026-04-14 12:25 | 35.62996 | 138.45402 | 39700 ft | 355 kts | 268° |
| 2026-04-14 12:25 | 35.62835 | 138.42367 | 39917 ft | 356 kts | 268° |
| 2026-04-14 12:25 | 35.62677 | 138.39364 | 40090 ft | 356 kts | 268° |
| 2026-04-14 12:25 | 35.62510 | 138.36324 | 40304 ft | 357 kts | 268° |
| 2026-04-14 12:26 | 35.62343 | 138.33283 | 40598 ft | 355 kts | 268° |
| 2026-04-14 12:26 | 35.62181 | 138.30275 | 40974 ft | 352 kts | 268° |
| 2026-04-14 12:26 | 35.62019 | 138.27280 | 41359 ft | 350 kts | 268° |
| 2026-04-14 12:26 | 35.61859 | 138.24304 | 41773 ft | 348 kts | 268° |
| 2026-04-14 12:27 | 35.61695 | 138.21345 | 42163 ft | 347 kts | 268° |
| 2026-04-14 12:27 | 35.61530 | 138.18389 | 42562 ft | 346 kts | 268° |
| 2026-04-14 12:27 | 35.61367 | 138.15442 | 42966 ft | 346 kts | 268° |
| 2026-04-14 12:27 | 35.61200 | 138.12453 | 43023 ft | 355 kts | 268° |
| 2026-04-14 12:28 | 35.60856 | 138.06288 | 43028 ft | 362 kts | 268° |
| 2026-04-14 12:28 | 35.60506 | 138.00157 | 43029 ft | 358 kts | 268° |
| 2026-04-14 12:29 | 35.60159 | 137.94077 | 43017 ft | 355 kts | 268° |
| 2026-04-14 12:29 | 35.59815 | 137.88103 | 43019 ft | 351 kts | 268° |
| 2026-04-14 12:30 | 35.59467 | 137.82142 | 43011 ft | 349 kts | 268° |
| 2026-04-14 12:30 | 35.59049 | 137.76217 | 43012 ft | 348 kts | 267° |
| 2026-04-14 12:31 | 35.58649 | 137.70300 | 43023 ft | 346 kts | 267° |
| 2026-04-14 12:31 | 35.58194 | 137.64343 | 43026 ft | 357 kts | 267° |
| 2026-04-14 12:32 | 35.57742 | 137.58200 | 43015 ft | 364 kts | 266° |
| 2026-04-14 12:32 | 35.57168 | 137.52039 | 43009 ft | 362 kts | 260° |
| 2026-04-14 12:33 | 35.55844 | 137.46101 | 43009 ft | 358 kts | 259° |
| 2026-04-14 12:33 | 35.54576 | 137.40207 | 43007 ft | 357 kts | 259° |
| 2026-04-14 12:34 | 35.53281 | 137.34346 | 43008 ft | 354 kts | 259° |
| 2026-04-14 12:34 | 35.52001 | 137.28519 | 43003 ft | 354 kts | 259° |
| 2026-04-14 12:35 | 35.50716 | 137.22681 | 43007 ft | 355 kts | 259° |
| 2026-04-14 12:35 | 35.49418 | 137.16815 | 42995 ft | 357 kts | 259° |
| 2026-04-14 12:36 | 35.48114 | 137.10940 | 42996 ft | 357 kts | 259° |
| 2026-04-14 12:36 | 35.46878 | 137.05375 | 43004 ft | 355 kts | 259° |
| 2026-04-14 12:37 | 35.45576 | 136.99535 | 43008 ft | 354 kts | 259° |
| 2026-04-14 12:37 | 35.44278 | 136.93720 | 42992 ft | 353 kts | 259° |
| 2026-04-14 12:38 | 35.42328 | 136.85016 | 42989 ft | 353 kts | 259° |
| 2026-04-14 12:39 | 35.41027 | 136.79226 | 42988 ft | 352 kts | 259° |
| 2026-04-14 12:39 | 35.39724 | 136.73441 | 42990 ft | 352 kts | 259° |
| 2026-04-14 12:40 | 35.38420 | 136.67668 | 42993 ft | 351 kts | 259° |
| 2026-04-14 12:40 | 35.37115 | 136.61899 | 42991 ft | 351 kts | 259° |
| 2026-04-14 12:41 | 35.35815 | 136.56174 | 42991 ft | 351 kts | 259° |
| 2026-04-14 12:41 | 35.34506 | 136.50421 | 42997 ft | 350 kts | 258° |
| 2026-04-14 12:42 | 35.33198 | 136.44678 | 43003 ft | 350 kts | 258° |
| 2026-04-14 12:42 | 35.31883 | 136.38928 | 42999 ft | 350 kts | 258° |
| 2026-04-14 12:43 | 35.30573 | 136.33195 | 42990 ft | 349 kts | 258° |
| 2026-04-14 12:43 | 35.29257 | 136.27469 | 42995 ft | 350 kts | 258° |
| 2026-04-14 12:44 | 35.27939 | 136.21735 | 42987 ft | 350 kts | 258° |
| 2026-04-14 12:44 | 35.26617 | 136.16003 | 42988 ft | 350 kts | 258° |
| 2026-04-14 12:45 | 35.24629 | 136.07408 | 42986 ft | 350 kts | 258° |
| 2026-04-14 12:45 | 35.23301 | 136.01680 | 42988 ft | 350 kts | 258° |
| 2026-04-14 12:46 | 35.21972 | 135.95964 | 42981 ft | 349 kts | 258° |
| 2026-04-14 12:46 | 35.20642 | 135.90249 | 42977 ft | 349 kts | 258° |
| 2026-04-14 12:47 | 35.19311 | 135.84567 | 42983 ft | 347 kts | 258° |
| 2026-04-14 12:47 | 35.18033 | 135.78899 | 42983 ft | 345 kts | 261° |
| 2026-04-14 12:48 | 35.17102 | 135.73195 | 42974 ft | 345 kts | 262° |
| 2026-04-14 12:48 | 35.16125 | 135.67446 | 42980 ft | 346 kts | 261° |
| 2026-04-14 12:49 | 35.15155 | 135.61677 | 42981 ft | 347 kts | 262° |
| 2026-04-14 12:49 | 35.14179 | 135.55901 | 42973 ft | 347 kts | 261° |
| 2026-04-14 12:50 | 35.12708 | 135.47232 | 42984 ft | 348 kts | 261° |
| 2026-04-14 12:51 | 35.11721 | 135.41441 | 42986 ft | 348 kts | 261° |
| 2026-04-14 12:51 | 35.10731 | 135.35641 | 42972 ft | 349 kts | 261° |
| 2026-04-14 12:52 | 35.09736 | 135.29839 | 42975 ft | 349 kts | 261° |
| 2026-04-14 12:52 | 35.08738 | 135.24032 | 42976 ft | 350 kts | 261° |
| 2026-04-14 12:53 | 35.07736 | 135.18225 | 42976 ft | 350 kts | 261° |
| 2026-04-14 12:53 | 35.06731 | 135.12417 | 42980 ft | 350 kts | 261° |
| 2026-04-14 12:54 | 35.05724 | 135.06607 | 42981 ft | 350 kts | 261° |
| 2026-04-14 12:54 | 35.04714 | 135.00800 | 42984 ft | 350 kts | 261° |
| 2026-04-14 12:55 | 35.03699 | 134.94988 | 42981 ft | 350 kts | 261° |
| 2026-04-14 12:55 | 35.02689 | 134.89218 | 42978 ft | 350 kts | 261° |
| 2026-04-14 12:56 | 35.01670 | 134.83414 | 42979 ft | 350 kts | 261° |
| 2026-04-14 12:56 | 35.00647 | 134.77608 | 42939 ft | 350 kts | 261° |
| 2026-04-14 12:57 | 34.99626 | 134.71815 | 42975 ft | 350 kts | 261° |
| 2026-04-14 12:57 | 34.98396 | 134.66060 | 42983 ft | 353 kts | 256° |
| 2026-04-14 12:58 | 34.96897 | 134.60369 | 42999 ft | 353 kts | 257° |
| 2026-04-14 12:58 | 34.95432 | 134.54668 | 43001 ft | 352 kts | 257° |
| 2026-04-14 12:59 | 34.93951 | 134.48991 | 42990 ft | 351 kts | 257° |
| 2026-04-14 12:59 | 34.92475 | 134.43312 | 42992 ft | 352 kts | 257° |
| 2026-04-14 13:00 | 34.90993 | 134.37634 | 42992 ft | 351 kts | 256° |
| 2026-04-14 13:00 | 34.89508 | 134.31958 | 42999 ft | 352 kts | 256° |
| 2026-04-14 13:01 | 34.88021 | 134.26286 | 42999 ft | 352 kts | 256° |
| 2026-04-14 13:01 | 34.86542 | 134.20652 | 42994 ft | 352 kts | 256° |
| 2026-04-14 13:02 | 34.85048 | 134.14979 | 42999 ft | 352 kts | 256° |
| 2026-04-14 13:02 | 34.83554 | 134.09309 | 42997 ft | 352 kts | 256° |
| 2026-04-14 13:03 | 34.82053 | 134.03636 | 42979 ft | 352 kts | 256° |
| 2026-04-14 13:03 | 34.80552 | 133.97965 | 42960 ft | 352 kts | 256° |
| 2026-04-14 13:04 | 34.79044 | 133.92287 | 42959 ft | 353 kts | 256° |
| 2026-04-14 13:04 | 34.77536 | 133.86608 | 42959 ft | 353 kts | 256° |
| 2026-04-14 13:05 | 34.76018 | 133.80925 | 42972 ft | 353 kts | 256° |
| 2026-04-14 13:05 | 34.74504 | 133.75258 | 42968 ft | 352 kts | 256° |
| 2026-04-14 13:06 | 34.72993 | 133.69604 | 42961 ft | 351 kts | 256° |
| 2026-04-14 13:06 | 34.71477 | 133.63958 | 42965 ft | 352 kts | 256° |
| 2026-04-14 13:07 | 34.69957 | 133.58308 | 42981 ft | 352 kts | 256° |
| 2026-04-14 13:07 | 34.68436 | 133.52658 | 42983 ft | 352 kts | 256° |
| 2026-04-14 13:08 | 34.66914 | 133.47017 | 42983 ft | 351 kts | 256° |
| 2026-04-14 13:08 | 34.65385 | 133.41364 | 42990 ft | 353 kts | 256° |
| 2026-04-14 13:09 | 34.63854 | 133.35713 | 42986 ft | 352 kts | 256° |
| 2026-04-14 13:09 | 34.62332 | 133.30112 | 42987 ft | 351 kts | 256° |
| 2026-04-14 13:10 | 34.60799 | 133.24479 | 42984 ft | 351 kts | 256° |
| 2026-04-14 13:10 | 34.59255 | 133.18820 | 42979 ft | 351 kts | 256° |
| 2026-04-14 13:11 | 34.57979 | 133.14148 | 42976 ft | 351 kts | 256° |
| 2026-04-14 13:11 | 34.56189 | 133.07610 | 42975 ft | 352 kts | 256° |
| 2026-04-14 13:12 | 34.54645 | 133.01981 | 42994 ft | 352 kts | 256° |
| 2026-04-14 13:12 | 34.53345 | 132.97255 | 42986 ft | 352 kts | 256° |
| 2026-04-14 13:13 | 34.51795 | 132.91625 | 42988 ft | 352 kts | 256° |
| 2026-04-14 13:13 | 34.50243 | 132.86003 | 42988 ft | 352 kts | 256° |
| 2026-04-14 13:14 | 34.48698 | 132.80415 | 42988 ft | 352 kts | 256° |
| 2026-04-14 13:14 | 34.47139 | 132.74792 | 42987 ft | 352 kts | 255° |
| 2026-04-14 13:15 | 34.45579 | 132.69167 | 42975 ft | 352 kts | 255° |
| 2026-04-14 13:15 | 34.44013 | 132.63542 | 42964 ft | 353 kts | 255° |
| 2026-04-14 13:16 | 34.42449 | 132.57926 | 42977 ft | 353 kts | 255° |
| 2026-04-14 13:16 | 34.40876 | 132.52290 | 42985 ft | 353 kts | 255° |
| 2026-04-14 13:17 | 34.39300 | 132.46662 | 42987 ft | 353 kts | 255° |
| 2026-04-14 13:17 | 34.37721 | 132.41024 | 42962 ft | 354 kts | 255° |
| 2026-04-14 13:18 | 34.36137 | 132.35389 | 42983 ft | 354 kts | 255° |
| 2026-04-14 13:18 | 34.34552 | 132.29755 | 42982 ft | 354 kts | 255° |
| 2026-04-14 13:19 | 34.32965 | 132.24132 | 42982 ft | 353 kts | 255° |
| 2026-04-14 13:19 | 34.31377 | 132.18508 | 42975 ft | 354 kts | 255° |
| 2026-04-14 13:20 | 34.29785 | 132.12893 | 42968 ft | 351 kts | 255° |
| 2026-04-14 13:20 | 34.28201 | 132.07307 | 42971 ft | 351 kts | 255° |
| 2026-04-14 13:21 | 34.26609 | 132.01707 | 42969 ft | 353 kts | 255° |
| 2026-04-14 13:21 | 34.25008 | 131.96086 | 42974 ft | 353 kts | 255° |
| 2026-04-14 13:22 | 34.23409 | 131.90482 | 42975 ft | 352 kts | 255° |
| 2026-04-14 13:22 | 34.21808 | 131.84886 | 42958 ft | 353 kts | 255° |
| 2026-04-14 13:23 | 34.20200 | 131.79270 | 42958 ft | 354 kts | 255° |
| 2026-04-14 13:23 | 34.18594 | 131.73681 | 42959 ft | 355 kts | 255° |
| 2026-04-14 13:24 | 34.16975 | 131.68051 | 42964 ft | 355 kts | 255° |
| 2026-04-14 13:24 | 34.14531 | 131.59575 | 42961 ft | 356 kts | 254° |
| 2026-04-14 13:25 | 34.12897 | 131.53929 | 42955 ft | 356 kts | 254° |
| 2026-04-14 13:26 | 34.09647 | 131.42718 | 42960 ft | 354 kts | 254° |
| 2026-04-14 13:26 | 34.08015 | 131.37104 | 42943 ft | 354 kts | 254° |
| 2026-04-14 13:27 | 34.06346 | 131.31497 | 42942 ft | 359 kts | 251° |
| 2026-04-14 13:27 | 34.04109 | 131.26120 | 42931 ft | 362 kts | 249° |
| 2026-04-14 13:28 | 34.01875 | 131.20688 | 42932 ft | 361 kts | 249° |
| 2026-04-14 13:28 | 33.99634 | 131.15297 | 42932 ft | 359 kts | 248° |
| 2026-04-14 13:29 | 33.97407 | 131.09929 | 42942 ft | 358 kts | 249° |
| 2026-04-14 13:29 | 33.95184 | 131.04584 | 42932 ft | 356 kts | 248° |
| 2026-04-14 13:30 | 33.92963 | 130.99248 | 42927 ft | 357 kts | 248° |
| 2026-04-14 13:30 | 33.90734 | 130.93908 | 42927 ft | 357 kts | 248° |
| 2026-04-14 13:31 | 33.88505 | 130.88567 | 42953 ft | 357 kts | 248° |
| 2026-04-14 13:31 | 33.86272 | 130.83230 | 42958 ft | 357 kts | 248° |
| 2026-04-14 13:32 | 33.84036 | 130.77892 | 43049 ft | 358 kts | 248° |
| 2026-04-14 13:32 | 33.82915 | 130.75222 | 43201 ft | 358 kts | 248° |
| 2026-04-14 13:32 | 33.81790 | 130.72540 | 43311 ft | 359 kts | 248° |
| 2026-04-14 13:33 | 33.80686 | 130.69917 | 42771 ft | 354 kts | 248° |
| 2026-04-14 13:33 | 33.79579 | 130.67286 | 41994 ft | 349 kts | 248° |
| 2026-04-14 13:33 | 33.78496 | 130.64713 | 41304 ft | 341 kts | 248° |
| 2026-04-14 13:33 | 33.77434 | 130.62192 | 40576 ft | 335 kts | 249° |
| 2026-04-14 13:34 | 33.75379 | 130.57315 | 39381 ft | 320 kts | 249° |
| 2026-04-14 13:34 | 33.74380 | 130.54947 | 38761 ft | 315 kts | 249° |
| 2026-04-14 13:34 | 33.73394 | 130.52612 | 37998 ft | 312 kts | 249° |
| 2026-04-14 13:35 | 33.72416 | 130.50293 | 37105 ft | 311 kts | 249° |
| 2026-04-14 13:35 | 33.71437 | 130.47974 | 36247 ft | 311 kts | 249° |
| 2026-04-14 13:35 | 33.70458 | 130.45664 | 35430 ft | 309 kts | 249° |
| 2026-04-14 13:35 | 33.69487 | 130.43371 | 34633 ft | 307 kts | 250° |
| 2026-04-14 13:36 | 33.68493 | 130.41096 | 33855 ft | 311 kts | 246° |
| 2026-04-14 13:36 | 33.67091 | 130.39054 | 32962 ft | 325 kts | 234° |
| 2026-04-14 13:36 | 33.65194 | 130.37437 | 32089 ft | 345 kts | 221° |
| 2026-04-14 13:36 | 33.63046 | 130.36125 | 31247 ft | 346 kts | 218° |
| 2026-04-14 13:37 | 33.60898 | 130.34840 | 30438 ft | 344 kts | 218° |
| 2026-04-14 13:37 | 33.58777 | 130.33537 | 29576 ft | 341 kts | 218° |
| 2026-04-14 13:37 | 33.56673 | 130.32230 | 28647 ft | 341 kts | 217° |
| 2026-04-14 13:37 | 33.54564 | 130.30932 | 27763 ft | 340 kts | 216° |
| 2026-04-14 13:38 | 33.52458 | 130.29644 | 26883 ft | 340 kts | 215° |
| 2026-04-14 13:38 | 33.50352 | 130.28357 | 26048 ft | 340 kts | 214° |
| 2026-04-14 13:38 | 33.48248 | 130.27066 | 25225 ft | 340 kts | 214° |
| 2026-04-14 13:38 | 33.46137 | 130.25770 | 24420 ft | 342 kts | 214° |
| 2026-04-14 13:39 | 33.44007 | 130.24463 | 23649 ft | 347 kts | 212° |
| 2026-04-14 13:39 | 33.41847 | 130.23143 | 22768 ft | 350 kts | 212° |
| 2026-04-14 13:39 | 33.39746 | 130.21868 | 21886 ft | 336 kts | 212° |
| 2026-04-14 13:39 | 33.37703 | 130.20623 | 21001 ft | 322 kts | 211° |
| 2026-04-14 13:40 | 33.35741 | 130.19418 | 20169 ft | 313 kts | 211° |
| 2026-04-14 13:40 | 33.33794 | 130.18302 | 19317 ft | 308 kts | 205° |
| 2026-04-14 13:40 | 33.31706 | 130.17730 | 18564 ft | 308 kts | 192° |
| 2026-04-14 13:40 | 33.29561 | 130.17588 | 17472 ft | 309 kts | 188° |
| 2026-04-14 13:41 | 33.27406 | 130.17467 | 16403 ft | 308 kts | 188° |
| 2026-04-14 13:41 | 33.25286 | 130.17328 | 15533 ft | 302 kts | 188° |
| 2026-04-14 13:41 | 33.23206 | 130.17191 | 14685 ft | 297 kts | 188° |
| 2026-04-14 13:41 | 33.21161 | 130.17059 | 13862 ft | 292 kts | 187° |
| 2026-04-14 13:42 | 33.19145 | 130.16933 | 12972 ft | 288 kts | 187° |
| 2026-04-14 13:42 | 33.17174 | 130.16808 | 11965 ft | 282 kts | 187° |
| 2026-04-14 13:42 | 33.15220 | 130.16681 | 11110 ft | 279 kts | 186° |
| 2026-04-14 13:42 | 33.13291 | 130.16560 | 10313 ft | 275 kts | 186° |
| 2026-04-14 13:43 | 33.11393 | 130.16439 | 9497 ft | 272 kts | 186° |
| 2026-04-14 13:43 | 33.09518 | 130.16320 | 8666 ft | 267 kts | 186° |
| 2026-04-14 13:43 | 33.07678 | 130.16203 | 7878 ft | 263 kts | 186° |
| 2026-04-14 13:43 | 33.05863 | 130.16087 | 7103 ft | 259 kts | 185° |
| 2026-04-14 13:44 | 33.04078 | 130.15973 | 6366 ft | 255 kts | 185° |
| 2026-04-14 13:44 | 33.02313 | 130.15861 | 5584 ft | 254 kts | 184° |
| 2026-04-14 13:44 | 33.00544 | 130.15748 | 5036 ft | 253 kts | 183° |
| 2026-04-14 13:44 | 32.98842 | 130.15641 | 5001 ft | 238 kts | 182° |
| 2026-04-14 13:45 | 32.97202 | 130.15537 | 4990 ft | 234 kts | 183° |
| 2026-04-14 13:45 | 32.95588 | 130.15435 | 4995 ft | 230 kts | 183° |
| 2026-04-14 13:45 | 32.93995 | 130.15335 | 4988 ft | 228 kts | 183° |
| 2026-04-14 13:45 | 32.92418 | 130.15235 | 4990 ft | 226 kts | 183° |
| 2026-04-14 13:46 | 32.90857 | 130.15136 | 4990 ft | 224 kts | 183° |
| 2026-04-14 13:46 | 32.89303 | 130.15039 | 4989 ft | 222 kts | 184° |
| 2026-04-14 13:46 | 32.87768 | 130.14943 | 4988 ft | 220 kts | 184° |
| 2026-04-14 13:46 | 32.86260 | 130.14848 | 4702 ft | 219 kts | 184° |
| 2026-04-14 13:47 | 32.84734 | 130.14752 | 4345 ft | 218 kts | 183° |
| 2026-04-14 13:47 | 32.83214 | 130.14659 | 4006 ft | 219 kts | 182° |
| 2026-04-14 13:47 | 32.81693 | 130.14556 | 3724 ft | 219 kts | 184° |
| 2026-04-14 13:47 | 32.80229 | 130.14040 | 3466 ft | 224 kts | 205° |
| 2026-04-14 13:48 | 32.78978 | 130.12921 | 3259 ft | 225 kts | 223° |
| 2026-04-14 13:48 | 32.78092 | 130.11385 | 2639 ft | 231 kts | 244° |
| 2026-04-14 13:48 | 32.77735 | 130.09577 | 2494 ft | 216 kts | 263° |
| 2026-04-14 13:48 | 32.77872 | 130.07881 | 2488 ft | 199 kts | 284° |
| 2026-04-14 13:49 | 32.78476 | 130.06430 | 2486 ft | 196 kts | 304° |
| 2026-04-14 13:49 | 32.79179 | 130.05068 | 2489 ft | 190 kts | 297° |
| 2026-04-14 13:49 | 32.79994 | 130.03880 | 2490 ft | 184 kts | 315° |
| 2026-04-14 13:49 | 32.80933 | 130.02851 | 2486 ft | 182 kts | 316° |
| 2026-04-14 13:50 | 32.81856 | 130.01851 | 2347 ft | 181 kts | 317° |
| 2026-04-14 13:50 | 32.82789 | 130.00872 | 2109 ft | 170 kts | 317° |
| 2026-04-14 13:50 | 32.83603 | 129.99989 | 1891 ft | 145 kts | 318° |
| 2026-04-14 13:50 | 32.84307 | 129.99246 | 1712 ft | 133 kts | 319° |
| 2026-04-14 13:51 | 32.85008 | 129.98494 | 1534 ft | 139 kts | 319° |
| 2026-04-14 13:51 | 32.85727 | 129.97725 | 1352 ft | 139 kts | 319° |
| 2026-04-14 13:51 | 32.86444 | 129.96957 | 1164 ft | 138 kts | 319° |
| 2026-04-14 13:51 | 32.87153 | 129.96199 | 980 ft | 136 kts | 319° |
| 2026-04-14 13:52 | 32.87853 | 129.95452 | 800 ft | 134 kts | 319° |
| 2026-04-14 13:52 | 32.88541 | 129.94714 | 624 ft | 133 kts | 319° |
| 2026-04-14 13:52 | 32.89224 | 129.93983 | 447 ft | 129 kts | 319° |
| 2026-04-14 13:52 | 32.89869 | 129.93295 | 211 ft | 124 kts | 320° |
| 2026-04-14 13:53 | 32.90518 | 129.92600 | 88 ft | 127 kts | 319° |
| 2026-04-14 13:53 | 32.91175 | 129.91896 | 12 ft | 120 kts | 319° |
| 2026-04-14 13:53 | 32.91655 | 129.91387 | 7 ft | 62 kts | 318° |
| 2026-04-14 13:53 | 32.91845 | 129.91183 | 7 ft | 18 kts | 318° |
| 2026-04-14 13:54 | 32.91962 | 129.91101 | 8 ft | 22 kts | 8° |
| 2026-04-14 13:54 | 32.92045 | 129.91220 | 5 ft | 16 kts | 81° |
| 2026-04-14 13:54 | 32.91961 | 129.91335 | 3 ft | 23 kts | 138° |
| 2026-04-14 13:54 | 32.91848 | 129.91457 | 3 ft | 13 kts | 138° |
| 2026-04-14 13:55 | 32.91830 | 129.91548 | 5 ft | 15 kts | 46° |
| 2026-04-14 13:55 | 32.91895 | 129.91631 | 7 ft | 5 kts | 50° |
| 2026-04-14 13:55 | 32.91891 | 129.91650 | 8 ft | 5 kts | 129° |
| 2026-04-14 13:55 | 32.91887 | 129.91654 | 7 ft | 0 kts | 139° |